createdAt,value
2023-03-06T00:00:20.302Z,86.28
2023-03-06T00:02:47.001Z,86.96
2023-03-06T00:05:14.506Z,86.23
2023-03-06T00:07:42.036Z,86.52
2023-03-06T00:10:12.519Z,86.50
2023-03-06T00:12:39.026Z,86.09
2023-03-06T00:15:06.171Z,86.77
2023-03-06T00:17:32.705Z,86.57
2023-03-06T00:19:59.195Z,86.33
2023-03-06T00:22:25.684Z,86.78
2023-03-06T00:24:53.726Z,86.88
2023-03-06T00:27:21.288Z,87.01
2023-03-06T00:29:50.501Z,86.95
2023-03-06T00:32:17.003Z,87.62
2023-03-06T00:34:43.434Z,87.52
2023-03-06T00:37:09.872Z,86.89
2023-03-06T00:39:37.032Z,88.08
2023-03-06T00:42:03.572Z,88.07
2023-03-06T00:44:30.037Z,87.86
2023-03-06T00:46:56.495Z,88.29
2023-03-06T00:49:23.101Z,88.41
2023-03-06T00:51:50.424Z,88.44
2023-03-06T00:54:16.896Z,88.74
2023-03-06T00:56:43.369Z,88.90
2023-03-06T00:59:10.954Z,89.36
2023-03-06T01:01:37.508Z,89.14
2023-03-06T01:04:07.102Z,89.39
2023-03-06T01:06:33.643Z,89.77
2023-03-06T01:09:00.070Z,90.01
2023-03-06T01:11:26.551Z,90.32
2023-03-06T01:13:53.297Z,90.77
2023-03-06T01:16:21.403Z,90.86
2023-03-06T01:18:47.969Z,90.99
2023-03-06T01:21:14.624Z,91.15
2023-03-06T01:23:41.721Z,91.13
2023-03-06T01:26:08.828Z,91.25
2023-03-06T01:28:37.460Z,91.61
2023-03-06T01:31:04.933Z,91.37
2023-03-06T01:33:31.446Z,91.82
2023-03-06T01:35:57.904Z,91.40
2023-03-06T01:38:24.485Z,91.51
2023-03-06T01:40:50.949Z,91.91
2023-03-06T01:43:50.385Z,91.90
2023-03-06T01:46:28.799Z,91.96
2023-03-06T01:49:04.763Z,92.02
2023-03-06T01:51:54.243Z,92.16
2023-03-06T01:54:23.726Z,91.92
2023-03-06T01:56:52.976Z,92.19
2023-03-06T01:59:21.792Z,92.32
2023-03-06T02:01:48.423Z,92.33
2023-03-06T02:04:16.006Z,92.58
2023-03-06T02:06:43.325Z,92.58
2023-03-06T02:09:11.428Z,92.89
2023-03-06T02:11:38.824Z,92.59
2023-03-06T02:14:05.419Z,93.12
2023-03-06T02:16:33.487Z,93.04
2023-03-06T02:19:01.912Z,92.97
2023-03-06T02:21:37.135Z,92.89
2023-03-06T02:24:16.001Z,93.22
2023-03-06T02:26:45.271Z,93.18
2023-03-06T02:29:11.810Z,93.44
2023-03-06T02:31:38.328Z,93.75
2023-03-06T02:34:13.796Z,93.71
2023-03-06T02:36:47.337Z,93.63
2023-03-06T02:39:15.778Z,94.12
2023-03-06T02:41:42.238Z,93.99
2023-03-06T02:44:08.725Z,94.15
2023-03-06T02:46:35.642Z,94.19
2023-03-06T02:49:02.224Z,94.25
2023-03-06T02:51:28.702Z,94.58
2023-03-06T02:53:55.168Z,94.52
2023-03-06T02:56:21.717Z,94.95
2023-03-06T02:58:48.299Z,94.94
2023-03-06T03:01:15.046Z,95.37
2023-03-06T03:03:41.539Z,95.03
2023-03-06T03:06:08.354Z,95.24
2023-03-06T03:08:35.550Z,95.63
2023-03-06T03:11:02.476Z,95.45
2023-03-06T03:13:29.026Z,95.35
2023-03-06T03:15:59.760Z,95.72
2023-03-06T03:18:27.490Z,95.63
2023-03-06T03:20:54.192Z,95.45
2023-03-06T03:23:20.659Z,96.00
2023-03-06T03:25:47.137Z,95.72
2023-03-06T03:28:13.644Z,96.03
2023-03-06T03:30:41.206Z,96.02
2023-03-06T03:33:08.462Z,96.20
2023-03-06T03:35:35.147Z,96.04
2023-03-06T03:38:01.703Z,95.98
2023-03-06T03:40:31.253Z,96.05
2023-03-06T03:42:57.839Z,95.99
2023-03-06T03:45:24.340Z,96.07
2023-03-06T03:47:50.792Z,96.12
2023-03-06T03:50:17.525Z,96.18
2023-03-06T03:52:43.993Z,96.08
2023-03-06T03:55:11.434Z,96.21
2023-03-06T03:57:39.261Z,96.41
2023-03-06T04:00:07.900Z,96.47
2023-03-06T04:02:34.444Z,96.63
2023-03-06T04:05:01.073Z,96.87
2023-03-06T04:07:27.502Z,96.62
2023-03-06T04:09:54.028Z,96.54
2023-03-06T04:12:20.459Z,96.67
2023-03-06T04:14:46.900Z,96.79
2023-03-06T04:17:13.393Z,96.82
2023-03-06T04:19:39.856Z,97.20
2023-03-06T04:22:06.277Z,96.80
2023-03-06T04:24:32.735Z,96.92
2023-03-06T04:26:59.153Z,96.90
2023-03-06T04:29:25.583Z,96.98
2023-03-06T04:31:52.054Z,97.08
2023-03-06T04:34:18.510Z,97.10
2023-03-06T04:36:49.989Z,97.15
2023-03-06T04:39:16.537Z,97.22
2023-03-06T04:41:43.272Z,97.25
2023-03-06T04:44:09.809Z,97.44
2023-03-06T04:46:36.635Z,97.47
2023-03-06T04:49:04.886Z,97.41
2023-03-06T04:51:31.426Z,97.45
2023-03-06T04:53:58.181Z,97.87
2023-03-06T04:56:24.664Z,97.96
2023-03-06T04:58:51.130Z,97.93
2023-03-06T05:01:17.579Z,98.11
2023-03-06T05:03:44.202Z,98.38
2023-03-06T05:06:10.744Z,98.39
2023-03-06T05:08:37.396Z,98.33
2023-03-06T05:11:05.152Z,98.49
2023-03-06T05:13:31.717Z,98.60
2023-03-06T05:16:05.434Z,98.97
2023-03-06T05:18:33.430Z,99.01
2023-03-06T05:21:00.290Z,98.80
2023-03-06T05:23:28.242Z,99.13
2023-03-06T05:25:54.775Z,99.26
2023-03-06T05:28:21.278Z,99.09
2023-03-06T05:30:47.998Z,99.39
2023-03-06T05:33:14.752Z,99.49
2023-03-06T05:35:46.764Z,99.39
2023-03-06T05:38:14.131Z,99.65
2023-03-06T05:40:41.837Z,99.60
2023-03-06T05:43:08.996Z,99.41
2023-03-06T05:45:35.682Z,99.22
2023-03-06T05:48:02.789Z,99.12
2023-03-06T05:50:29.456Z,99.66
2023-03-06T05:52:55.869Z,99.47
2023-03-06T05:55:24.107Z,99.58
2023-03-06T05:57:51.393Z,99.62
2023-03-06T06:00:18.732Z,99.64
2023-03-06T06:02:45.818Z,99.36
2023-03-06T06:05:13.362Z,99.60
2023-03-06T06:07:40.391Z,99.44
2023-03-06T06:10:07.734Z,99.90
2023-03-06T06:12:34.558Z,99.86
2023-03-06T06:15:01.034Z,100.00
2023-03-06T06:17:29.995Z,100.00
2023-03-06T06:19:56.509Z,100.00
2023-03-06T06:22:23.084Z,100.00
2023-03-06T06:24:49.517Z,100.00
2023-03-06T06:27:16.022Z,100.00
2023-03-06T06:29:42.578Z,100.00
2023-03-06T06:32:09.105Z,100.00
2023-03-06T06:34:35.988Z,100.00
2023-03-06T06:37:02.421Z,100.00
2023-03-06T06:39:32.537Z,100.00
2023-03-06T06:42:20.209Z,100.00
2023-03-06T06:44:45.567Z,100.00
2023-03-06T06:47:27.630Z,99.71
2023-03-06T06:49:55.472Z,100.00
2023-03-06T06:52:23.357Z,99.70
2023-03-06T06:54:49.842Z,99.29
2023-03-06T06:57:16.966Z,99.39
2023-03-06T06:59:43.470Z,98.92
2023-03-06T07:02:14.707Z,98.73
2023-03-06T07:04:56.263Z,98.76
2023-03-06T07:07:28.436Z,98.74
2023-03-06T07:09:55.557Z,98.62
2023-03-06T07:12:22.125Z,98.48
2023-03-06T07:14:48.594Z,98.42
2023-03-06T07:17:15.085Z,98.13
2023-03-06T07:19:41.528Z,97.97
2023-03-06T07:22:08.045Z,98.10
2023-03-06T07:24:34.647Z,98.40
2023-03-06T07:27:01.088Z,97.99
2023-03-06T07:29:27.533Z,98.09
2023-03-06T07:31:54.116Z,97.99
2023-03-06T07:34:20.687Z,97.89
2023-03-06T07:36:47.134Z,97.82
2023-03-06T07:39:13.620Z,97.84
2023-03-06T07:41:40.105Z,97.47
2023-03-06T07:44:06.794Z,97.09
2023-03-06T07:46:33.300Z,96.97
2023-03-06T07:48:59.900Z,96.66
2023-03-06T07:51:26.456Z,96.38
2023-03-06T07:53:52.962Z,97.36
2023-03-06T07:56:19.483Z,97.33
2023-03-06T07:58:47.502Z,95.20
2023-03-06T08:01:19.828Z,94.20
2023-03-06T08:03:47.347Z,92.72
2023-03-06T08:06:15.236Z,93.32
2023-03-06T08:08:44.381Z,92.34
2023-03-06T08:11:12.606Z,91.45
2023-03-06T08:13:39.972Z,91.80
2023-03-06T08:16:07.390Z,90.98
2023-03-06T08:18:34.651Z,90.52
2023-03-06T08:21:11.504Z,90.22
2023-03-06T08:23:38.873Z,89.91
2023-03-06T08:26:12.149Z,89.38
2023-03-06T08:28:38.635Z,89.68
2023-03-06T08:31:25.920Z,89.67
2023-03-06T08:33:52.986Z,88.98
2023-03-06T08:36:19.624Z,88.22
2023-03-06T08:38:46.124Z,87.65
2023-03-06T08:41:12.553Z,87.44
2023-03-06T08:43:39.225Z,86.58
2023-03-06T08:46:05.775Z,86.17
2023-03-06T08:48:32.381Z,85.92
2023-03-06T08:50:59.169Z,86.29
2023-03-06T08:53:40.383Z,85.46
2023-03-06T08:56:15.704Z,85.19
2023-03-06T08:58:42.197Z,85.22
2023-03-06T09:01:17.654Z,84.96
2023-03-06T09:03:44.521Z,83.81
2023-03-06T09:06:11.860Z,84.13
2023-03-06T09:08:38.547Z,83.08
2023-03-06T09:11:06.084Z,82.67
2023-03-06T09:13:32.537Z,81.83
2023-03-06T09:15:58.988Z,81.48
2023-03-06T09:18:25.576Z,80.29
2023-03-06T09:20:52.042Z,79.92
2023-03-06T09:23:18.480Z,79.24
2023-03-06T09:25:46.042Z,80.33
2023-03-06T09:28:12.521Z,79.43
2023-03-06T09:30:40.561Z,79.66
2023-03-06T09:33:07.177Z,78.77
2023-03-06T09:35:33.606Z,78.50
2023-03-06T09:38:00.098Z,77.62
2023-03-06T09:41:00.163Z,77.01
2023-03-06T09:43:44.855Z,75.89
2023-03-06T09:46:20.453Z,76.26
2023-03-06T09:48:57.552Z,75.83
2023-03-06T09:51:32.961Z,74.97
2023-03-06T09:54:11.839Z,74.49
2023-03-06T09:56:38.323Z,74.36
2023-03-06T09:59:25.127Z,73.34
2023-03-06T10:02:02.658Z,73.63
2023-03-06T10:04:38.108Z,73.04
2023-03-06T10:07:20.274Z,71.88
2023-03-06T10:09:59.995Z,70.76
2023-03-06T10:12:41.110Z,71.19
2023-03-06T10:15:26.748Z,70.17
2023-03-06T10:17:53.558Z,68.68
2023-03-06T10:20:28.762Z,68.42
2023-03-06T10:23:37.339Z,67.36
2023-03-06T10:26:15.774Z,66.71
2023-03-06T10:28:57.369Z,65.76
2023-03-06T10:31:27.634Z,64.50
2023-03-06T10:34:29.799Z,63.03
2023-03-06T10:37:02.383Z,63.15
2023-03-06T10:39:29.599Z,62.71
2023-03-06T10:41:56.030Z,62.23
2023-03-06T10:44:24.112Z,62.22
2023-03-06T10:46:52.395Z,63.25
2023-03-06T10:49:36.989Z,63.76
2023-03-06T10:52:09.573Z,62.60
2023-03-06T10:54:39.079Z,62.47
2023-03-06T10:57:29.502Z,63.57
2023-03-06T10:59:59.129Z,63.12
2023-03-06T11:02:38.404Z,63.15
2023-03-06T11:05:06.303Z,62.63
2023-03-06T11:07:35.969Z,61.58
2023-03-06T11:10:20.840Z,61.69
2023-03-06T11:13:07.489Z,62.11
2023-03-06T11:15:34.765Z,61.55
2023-03-06T11:18:27.844Z,60.65
2023-03-06T11:20:55.938Z,62.03
2023-03-06T11:23:37.294Z,60.65
2023-03-06T11:26:25.912Z,60.96
2023-03-06T11:29:18.534Z,59.86
2023-03-06T11:31:54.391Z,59.72
2023-03-06T11:34:36.970Z,59.20
2023-03-06T11:37:10.759Z,58.62
2023-03-06T11:39:56.944Z,58.40
2023-03-06T11:42:34.340Z,58.54
2023-03-06T11:45:22.005Z,59.50
2023-03-06T11:48:08.905Z,59.32
2023-03-06T11:50:39.467Z,59.89
2023-03-06T11:53:10.725Z,60.22
2023-03-06T11:56:14.592Z,60.48
2023-03-06T11:59:05.156Z,60.27
2023-03-06T12:01:38.028Z,59.74
2023-03-06T12:04:51.009Z,60.12
2023-03-06T12:07:43.109Z,61.10
2023-03-06T12:10:09.658Z,61.44
2023-03-06T12:12:54.163Z,61.37
2023-03-06T12:15:29.528Z,62.69
2023-03-06T12:18:18.401Z,62.77
2023-03-06T12:21:04.695Z,63.31
2023-03-06T12:23:49.189Z,62.07
2023-03-06T12:26:57.803Z,62.48
2023-03-06T12:29:51.154Z,62.87
2023-03-06T12:32:51.750Z,63.92
2023-03-06T12:35:46.664Z,63.44
2023-03-06T12:38:31.877Z,63.85
2023-03-06T12:41:04.257Z,63.82
2023-03-06T12:43:49.460Z,64.39
2023-03-06T12:46:19.075Z,63.88
2023-03-06T12:48:55.769Z,63.99
2023-03-06T12:51:22.575Z,63.83
2023-03-06T12:53:51.272Z,64.45
2023-03-06T12:56:19.063Z,64.90
2023-03-06T12:58:49.980Z,65.13
2023-03-06T13:01:38.404Z,65.11
2023-03-06T13:04:26.739Z,65.82
2023-03-06T13:06:59.265Z,65.75
2023-03-06T13:09:33.246Z,64.54
2023-03-06T13:12:24.812Z,64.46
2023-03-06T13:15:00.263Z,64.52
2023-03-06T13:17:37.209Z,64.61
2023-03-06T13:20:16.124Z,65.10
2023-03-06T13:22:45.013Z,64.52
2023-03-06T13:25:17.583Z,64.87
2023-03-06T13:27:52.969Z,65.09
2023-03-06T13:30:43.395Z,66.02
2023-03-06T13:33:51.913Z,64.29
2023-03-06T13:36:28.373Z,63.75
2023-03-06T13:39:05.441Z,64.27
2023-03-06T13:41:31.901Z,64.52
2023-03-06T13:44:00.877Z,64.47
2023-03-06T13:46:31.300Z,65.22
2023-03-06T13:49:12.895Z,65.48
2023-03-06T13:51:41.832Z,66.00
2023-03-06T13:54:45.212Z,65.90
2023-03-06T13:57:41.297Z,65.77
2023-03-06T14:00:41.845Z,66.67
2023-03-06T14:03:29.903Z,65.60
2023-03-06T14:05:56.612Z,66.15
2023-03-06T14:08:26.595Z,66.98
2023-03-06T14:11:06.698Z,66.55
2023-03-06T14:13:46.620Z,66.83
2023-03-06T14:16:20.451Z,67.35
2023-03-06T14:18:49.421Z,67.15
2023-03-06T14:21:26.562Z,67.41
2023-03-06T14:24:01.845Z,66.56
2023-03-06T14:26:41.448Z,66.14
2023-03-06T14:29:20.075Z,65.99
2023-03-06T14:31:50.014Z,65.45
2023-03-06T14:34:25.837Z,66.28
2023-03-06T14:36:54.732Z,66.72
2023-03-06T14:39:40.058Z,67.29
2023-03-06T14:42:21.344Z,67.57
2023-03-06T14:44:59.480Z,67.84
2023-03-06T14:47:35.186Z,68.05
2023-03-06T14:50:21.677Z,68.03
2023-03-06T14:52:50.877Z,67.20
2023-03-06T14:55:20.393Z,67.31
2023-03-06T14:58:16.202Z,69.84
2023-03-06T15:00:50.345Z,70.55
2023-03-06T15:03:21.562Z,68.45
2023-03-06T15:05:49.739Z,69.11
2023-03-06T15:08:22.100Z,70.10
2023-03-06T15:11:03.668Z,69.82
2023-03-06T15:13:32.837Z,70.38
2023-03-06T15:16:05.638Z,69.43
2023-03-06T15:18:39.176Z,68.43
2023-03-06T15:21:16.490Z,67.68
2023-03-06T15:23:48.492Z,66.42
2023-03-06T15:26:23.985Z,67.05
2023-03-06T15:29:10.835Z,67.94
2023-03-06T15:31:43.283Z,68.81
2023-03-06T15:34:09.681Z,68.18
2023-03-06T15:36:43.447Z,68.43
2023-03-06T15:39:26.676Z,68.07
2023-03-06T15:42:20.835Z,67.21
2023-03-06T15:44:50.392Z,66.91
2023-03-06T15:47:17.374Z,64.66
2023-03-06T15:49:44.043Z,64.21
2023-03-06T15:52:10.801Z,65.65
2023-03-06T15:54:37.329Z,65.55
2023-03-06T15:57:07.605Z,65.68
2023-03-06T15:59:41.804Z,64.77
2023-03-06T16:02:22.388Z,64.97
2023-03-06T16:04:49.363Z,66.17
2023-03-06T16:07:16.807Z,67.64
2023-03-06T16:09:43.998Z,68.95
2023-03-06T16:12:30.975Z,69.77
2023-03-06T16:15:00.692Z,70.98
2023-03-06T16:17:27.237Z,72.30
2023-03-06T16:19:53.745Z,74.13
2023-03-06T16:22:20.207Z,74.97
2023-03-06T16:24:46.713Z,76.13
2023-03-06T16:27:22.684Z,77.86
2023-03-06T16:29:49.142Z,78.80
2023-03-06T16:32:15.616Z,79.55
2023-03-06T16:34:42.133Z,80.52
2023-03-06T16:37:12.728Z,81.43
2023-03-06T16:39:39.204Z,82.26
2023-03-06T16:42:05.749Z,83.03
2023-03-06T16:44:32.238Z,83.61
2023-03-06T16:47:00.521Z,84.26
2023-03-06T16:49:27.072Z,85.35
2023-03-06T16:51:54.150Z,85.28
2023-03-06T16:54:21.850Z,85.67
2023-03-06T16:56:48.283Z,86.03
2023-03-06T16:59:15.040Z,86.40
2023-03-06T17:01:45.166Z,86.79
2023-03-06T17:04:12.162Z,86.88
2023-03-06T17:06:39.535Z,87.19
2023-03-06T17:09:06.219Z,87.14
2023-03-06T17:11:32.776Z,88.15
2023-03-06T17:13:59.588Z,87.82
2023-03-06T17:16:26.236Z,88.03
2023-03-06T17:18:52.721Z,88.55
2023-03-06T17:21:19.293Z,88.56
2023-03-06T17:23:45.999Z,88.66
2023-03-06T17:26:18.848Z,88.03
2023-03-06T17:28:46.781Z,88.93
2023-03-06T17:31:20.901Z,88.59
2023-03-06T17:33:48.151Z,88.31
2023-03-06T17:36:15.728Z,88.73
2023-03-06T17:38:43.042Z,88.25
2023-03-06T17:41:13.766Z,88.65
2023-03-06T17:43:40.539Z,88.84
2023-03-06T17:46:12.026Z,88.44
2023-03-06T17:48:39.579Z,88.95
2023-03-06T17:51:07.430Z,89.26
2023-03-06T17:53:34.214Z,88.84
2023-03-06T17:56:04.044Z,88.90
2023-03-06T17:58:30.541Z,88.09
2023-03-06T18:00:57.294Z,87.62
2023-03-06T18:03:23.752Z,87.36
2023-03-06T18:06:04.749Z,87.38
2023-03-06T18:08:32.219Z,87.11
2023-03-06T18:11:00.535Z,87.17
2023-03-06T18:13:27.026Z,86.75
2023-03-06T18:15:53.824Z,87.51
2023-03-06T18:18:20.442Z,87.58
2023-03-06T18:20:47.339Z,87.29
2023-03-06T18:23:13.943Z,87.41
2023-03-06T18:25:42.732Z,87.28
2023-03-06T18:28:09.563Z,87.77
2023-03-06T18:30:41.326Z,88.53
2023-03-06T18:33:08.460Z,88.54
2023-03-06T18:35:35.547Z,89.37
2023-03-06T18:38:02.248Z,90.13
2023-03-06T18:40:28.781Z,90.20
2023-03-06T18:42:55.341Z,90.03
2023-03-06T18:45:21.780Z,90.27
2023-03-06T18:47:48.258Z,90.43
2023-03-06T18:50:17.509Z,90.65
2023-03-06T18:52:44.636Z,90.88
2023-03-06T18:55:11.735Z,91.45
2023-03-06T18:57:38.596Z,91.00
2023-03-06T19:00:06.591Z,91.26
2023-03-06T19:02:33.099Z,91.48
2023-03-06T19:04:59.627Z,91.14
2023-03-06T19:07:26.098Z,91.85
2023-03-06T19:09:52.574Z,91.57
2023-03-06T19:12:19.127Z,91.54
2023-03-06T19:14:45.647Z,92.13
2023-03-06T19:17:12.414Z,92.54
2023-03-06T19:19:38.981Z,92.35
2023-03-06T19:22:05.446Z,92.52
2023-03-06T19:24:31.942Z,92.56
2023-03-06T19:26:58.501Z,92.89
2023-03-06T19:29:25.330Z,92.75
2023-03-06T19:31:52.196Z,92.83
2023-03-06T19:34:18.859Z,92.93
2023-03-06T19:36:45.255Z,93.22
2023-03-06T19:39:11.887Z,93.66
2023-03-06T19:41:38.392Z,93.56
2023-03-06T19:44:05.896Z,94.04
2023-03-06T19:46:33.078Z,94.13
2023-03-06T19:49:01.952Z,94.00
2023-03-06T19:51:29.211Z,94.43
2023-03-06T19:53:57.576Z,94.27
2023-03-06T19:56:29.051Z,94.23
2023-03-06T19:58:55.925Z,94.94
2023-03-06T20:01:25.167Z,95.24
2023-03-06T20:03:59.196Z,94.93
2023-03-06T20:06:28.032Z,95.68
2023-03-06T20:08:54.723Z,95.41
2023-03-06T20:11:23.939Z,95.85
2023-03-06T20:13:50.818Z,96.34
2023-03-06T20:16:18.399Z,96.59
2023-03-06T20:18:45.633Z,96.88
2023-03-06T20:21:12.500Z,96.40
2023-03-06T20:23:39.095Z,96.65
2023-03-06T20:26:09.614Z,97.06
2023-03-06T20:28:37.718Z,96.88
2023-03-06T20:31:13.502Z,97.49
2023-03-06T20:33:46.447Z,97.49
2023-03-06T20:36:21.121Z,97.57
2023-03-06T20:38:48.213Z,98.27
2023-03-06T20:41:20.341Z,98.07
2023-03-06T20:43:47.273Z,98.12
2023-03-06T20:46:14.977Z,98.29
2023-03-06T20:48:42.477Z,98.46
2023-03-06T20:51:18.490Z,98.67
2023-03-06T20:53:46.851Z,99.02
2023-03-06T20:56:16.065Z,98.91
2023-03-06T20:58:42.917Z,99.47
2023-03-06T21:01:09.504Z,99.30
2023-03-06T21:03:35.901Z,99.56
2023-03-06T21:06:02.389Z,100.00
2023-03-06T21:08:31.844Z,100.00
2023-03-06T21:10:58.283Z,100.00
2023-03-06T21:13:24.839Z,100.00
2023-03-06T21:15:51.347Z,100.00
2023-03-06T21:18:18.129Z,100.00
2023-03-06T21:20:44.642Z,100.00
2023-03-06T21:23:11.147Z,100.00
2023-03-06T21:25:46.110Z,100.00
2023-03-06T21:28:12.557Z,100.00
2023-03-06T21:30:39.023Z,100.00
2023-03-06T21:33:05.555Z,100.00
2023-03-06T21:35:32.142Z,100.00
2023-03-06T21:37:58.584Z,100.00
2023-03-06T21:40:25.119Z,100.00
2023-03-06T21:42:51.613Z,100.00
2023-03-06T21:45:18.109Z,100.00
2023-03-06T21:47:47.365Z,100.00
2023-03-06T21:50:13.830Z,100.00
2023-03-06T21:52:40.574Z,100.00
2023-03-06T21:55:08.342Z,100.00
2023-03-06T21:57:34.831Z,100.00
2023-03-06T22:00:01.277Z,100.00
2023-03-06T22:02:27.834Z,100.00
2023-03-06T22:04:54.394Z,100.00
2023-03-06T22:07:21.215Z,100.00
2023-03-06T22:09:47.764Z,100.00
2023-03-06T22:12:14.458Z,100.00
2023-03-06T22:14:43.640Z,100.00
2023-03-06T22:17:10.113Z,100.00
2023-03-06T22:19:36.570Z,100.00
2023-03-06T22:22:03.842Z,100.00
2023-03-06T22:24:32.690Z,100.00
2023-03-06T22:26:59.244Z,100.00
2023-03-06T22:29:25.909Z,100.00
2023-03-06T22:31:53.018Z,100.00
2023-03-06T22:34:19.516Z,100.00
2023-03-06T22:36:45.972Z,100.00
2023-03-06T22:39:13.507Z,100.00
2023-03-06T22:41:40.617Z,100.00
2023-03-06T22:44:07.438Z,100.00
2023-03-06T22:46:33.963Z,100.00
2023-03-06T22:49:01.429Z,100.00
2023-03-06T22:51:29.341Z,100.00
2023-03-06T22:53:55.814Z,100.00
2023-03-06T22:56:22.965Z,100.00
2023-03-06T22:58:49.780Z,100.00
2023-03-06T23:01:21.549Z,100.00
2023-03-06T23:03:53.612Z,100.00
2023-03-06T23:06:27.978Z,100.00
2023-03-06T23:09:15.886Z,100.00
2023-03-06T23:11:42.514Z,100.00
2023-03-06T23:14:12.088Z,100.00
2023-03-06T23:16:39.240Z,100.00
2023-03-06T23:19:06.376Z,100.00
2023-03-06T23:21:34.213Z,100.00
2023-03-06T23:24:01.123Z,100.00
2023-03-06T23:26:29.418Z,100.00
2023-03-06T23:28:56.924Z,100.00
2023-03-06T23:31:28.781Z,100.00
2023-03-06T23:34:02.510Z,100.00
2023-03-06T23:36:30.268Z,100.00
2023-03-06T23:38:58.546Z,100.00
2023-03-06T23:41:25.345Z,100.00
2023-03-06T23:43:54.669Z,100.00
2023-03-06T23:46:21.587Z,100.00
2023-03-06T23:48:48.092Z,100.00
2023-03-06T23:51:17.477Z,100.00
2023-03-06T23:53:45.301Z,100.00
2023-03-06T23:56:12.856Z,100.00
2023-03-06T23:58:39.657Z,100.00
